Time;durP1;ratioP1;P1;durP2;ratioP2;P2;SDS_P1;SDS_P2;PMS_P1;PMS_P2;Temp;Humidity;BMP_temperature;BMP_pressure;BME280_temperature;BME280_humidity;BME280_pressure;Samples;Min_cycle;Max_cycle;Signal;HPM_P1;HPM_P2
2022/12/06 00:01:12;;;;;;;;;;;5.30;99.90;;;;;;4996646;28;19944;-78
2022/12/06 00:03:39;;;;;;;;;;;5.30;99.90;;;;;;5018838;28;19972;-79
2022/12/06 00:06:06;;;;;;;;;;;5.30;99.90;;;;;;5021116;28;19920;-82
2022/12/06 00:08:32;;;;;;;;;;;5.30;99.90;;;;;;5019533;28;19976;-79
2022/12/06 00:11:14;;;;;;;;;;;5.30;99.90;;;;;;5014947;28;19964;-78
2022/12/06 00:13:40;;;;;;;;;;;5.30;99.90;;;;;;5023058;28;20256;-79
2022/12/06 00:16:08;;;;;;;;;;;5.30;99.90;;;;;;5015042;28;20324;-80
2022/12/06 00:18:34;;;;;;;;;;;5.30;99.90;;;;;;5015119;28;19926;-80
2022/12/06 00:21:10;;;;;;;;;;;5.30;99.90;;;;;;5012957;28;19932;-79
2022/12/06 00:23:37;;;;;;;;;;;5.20;99.90;;;;;;5012504;28;19925;-79
2022/12/06 00:26:02;;;;;;;;;;;5.20;99.90;;;;;;5011099;28;20797;-80
2022/12/06 00:28:28;;;;;;;;;;;5.20;99.90;;;;;;5038634;28;19924;-78
2022/12/06 00:30:58;;;;;;;;;;;5.20;99.90;;;;;;5019659;28;19925;-79
2022/12/06 00:33:23;;;;;;;;;;;5.20;99.90;;;;;;5012242;28;19921;-79
2022/12/06 00:35:56;;;;;;;;;;;5.20;99.90;;;;;;5017119;28;20066;-79
2022/12/06 00:38:22;;;;;;;;;;;5.20;99.90;;;;;;4994268;28;19929;-79
2022/12/06 00:40:48;;;;;;;;;;;5.20;99.90;;;;;;5012021;28;20391;-78
2022/12/06 00:43:14;;;;;;;;;;;5.20;99.90;;;;;;5022406;28;19973;-79
2022/12/06 00:45:40;;;;;;;;;;;5.20;99.90;;;;;;5018224;28;20015;-79
2022/12/06 00:48:06;;;;;;;;;;;5.20;99.90;;;;;;5000450;28;20395;-79
2022/12/06 00:50:32;;;;;;;;;;;5.10;99.90;;;;;;5020697;28;19975;-79
2022/12/06 00:52:57;;;;;;;;;;;5.20;99.90;;;;;;5018915;28;20297;-78
2022/12/06 00:55:23;;;;;;;;;;;5.20;99.90;;;;;;5005897;28;20399;-79
2022/12/06 00:57:49;;;;;;;;;;;5.20;99.90;;;;;;5018629;28;19937;-79
2022/12/06 01:00:14;;;;;;;;;;;5.20;99.90;;;;;;5019847;28;19925;-79
2022/12/06 01:02:40;;;;;;;;;;;5.20;99.90;;;;;;5031850;28;20466;-80
2022/12/06 01:05:06;;;;;;;;;;;5.20;99.90;;;;;;5024134;28;20008;-79
2022/12/06 01:07:32;;;;;;;;;;;5.20;99.90;;;;;;5001415;28;19921;-79
2022/12/06 01:09:57;;;;;;;;;;;5.20;99.90;;;;;;5006233;28;19921;-79
2022/12/06 01:12:23;;;;;;;;;;;5.20;99.90;;;;;;5022891;28;19921;-79
2022/12/06 01:14:48;;;;;;;;;;;5.20;99.90;;;;;;5019132;28;19952;-83
2022/12/06 01:17:14;;;;;;;;;;;5.20;99.90;;;;;;5000228;28;19921;-81
2022/12/06 01:19:40;;;;;;;;;;;5.20;99.90;;;;;;5034209;28;19921;-79
2022/12/06 01:22:05;;;;;;;;;;;5.20;99.90;;;;;;5020601;28;20067;-79
2022/12/06 01:24:31;;;;;;;;;;;5.20;99.90;;;;;;5025548;28;20384;-79
2022/12/06 01:26:56;;;;;;;;;;;5.20;99.90;;;;;;5036694;28;19925;-80
2022/12/06 01:29:22;;;;;;;;;;;5.10;99.90;;;;;;5025009;28;19925;-82
2022/12/06 01:31:47;;;;;;;;;;;5.10;99.90;;;;;;5020846;28;20486;-79
2022/12/06 01:34:14;;;;;;;;;;;5.10;99.90;;;;;;5001902;28;19921;-79
2022/12/06 01:36:40;;;;;;;;;;;5.10;99.90;;;;;;5036118;28;20376;-80
2022/12/06 01:39:11;;;;;;;;;;;5.10;99.90;;;;;;5021615;28;20358;-78
2022/12/06 01:41:42;;;;;;;;;;;5.10;99.90;;;;;;5018227;28;19975;-79
2022/12/06 01:44:27;;;;;;;;;;;5.10;99.90;;;;;;5035959;28;19928;-79
2022/12/06 01:46:53;;;;;;;;;;;5.10;99.90;;;;;;4999192;28;20321;-79
2022/12/06 01:49:20;;;;;;;;;;;5.10;99.90;;;;;;5013929;28;19929;-80
2022/12/06 01:51:57;;;;;;;;;;;5.10;99.90;;;;;;5000088;28;20020;-80
2022/12/06 01:54:23;;;;;;;;;;;5.10;99.90;;;;;;5019186;28;20129;-79
2022/12/06 01:56:50;;;;;;;;;;;5.10;99.90;;;;;;5029589;28;20004;-79
2022/12/06 01:59:16;;;;;;;;;;;5.10;99.90;;;;;;5009299;28;19921;-79
2022/12/06 02:01:42;;;;;;;;;;;5.10;99.90;;;;;;5030957;28;19921;-79
2022/12/06 02:04:09;;;;;;;;;;;5.10;99.90;;;;;;5014508;28;19932;-79
2022/12/06 02:06:36;;;;;;;;;;;5.10;99.90;;;;;;5026467;28;19928;-79
2022/12/06 02:09:04;;;;;;;;;;;5.10;99.90;;;;;;5016485;28;19928;-80
2022/12/06 02:11:30;;;;;;;;;;;5.10;99.90;;;;;;5024503;28;19925;-82
2022/12/06 02:13:56;;;;;;;;;;;5.10;99.90;;;;;;5015681;28;19925;-79
2022/12/06 02:16:28;;;;;;;;;;;5.10;99.90;;;;;;5032549;28;19921;-78
2022/12/06 02:18:56;;;;;;;;;;;5.00;99.90;;;;;;5043443;28;19929;-79
2022/12/06 02:21:41;;;;;;;;;;;5.00;99.90;;;;;;5018190;28;19921;-79
2022/12/06 02:24:06;;;;;;;;;;;5.00;99.90;;;;;;5018721;28;19925;-79
2022/12/06 02:26:41;;;;;;;;;;;5.10;99.90;;;;;;5029503;28;19928;-79
2022/12/06 02:29:16;;;;;;;;;;;5.00;99.90;;;;;;5015465;28;19921;-79
2022/12/06 02:31:48;;;;;;;;;;;5.00;99.90;;;;;;5014335;28;19929;-79
2022/12/06 02:34:21;;;;;;;;;;;5.00;99.90;;;;;;4995912;28;20647;-83
2022/12/06 02:36:51;;;;;;;;;;;5.00;99.90;;;;;;5035023;28;20605;-81
2022/12/06 02:39:26;;;;;;;;;;;5.00;99.90;;;;;;5026906;28;19925;-80
2022/12/06 02:42:06;;;;;;;;;;;4.90;99.90;;;;;;5019552;28;19929;-79
2022/12/06 02:44:36;;;;;;;;;;;4.90;99.90;;;;;;5039219;28;20365;-79
2022/12/06 02:47:04;;;;;;;;;;;4.90;99.90;;;;;;5014457;28;20340;-83
2022/12/06 02:49:31;;;;;;;;;;;4.90;99.90;;;;;;5014716;28;19925;-79
2022/12/06 02:51:56;;;;;;;;;;;4.80;99.90;;;;;;5018603;28;19921;-79
2022/12/06 02:54:25;;;;;;;;;;;4.80;99.90;;;;;;5020122;28;19925;-79
2022/12/06 02:56:51;;;;;;;;;;;4.80;99.90;;;;;;5032659;28;19956;-82
2022/12/06 02:59:17;;;;;;;;;;;4.80;99.90;;;;;;5007858;28;19921;-79
2022/12/06 03:01:48;;;;;;;;;;;4.80;99.90;;;;;;5028344;28;19967;-85
2022/12/06 03:04:30;;;;;;;;;;;4.90;99.90;;;;;;5028390;28;19921;-79
2022/12/06 03:07:05;;;;;;;;;;;4.80;99.90;;;;;;5030573;28;19929;-79
2022/12/06 03:09:49;;;;;;;;;;;4.80;99.90;;;;;;5025204;28;19932;-79
2022/12/06 03:12:15;;;;;;;;;;;4.80;99.90;;;;;;5034411;28;20333;-79
2022/12/06 03:14:46;;;;;;;;;;;4.80;99.90;;;;;;5016681;28;19929;-79
2022/12/06 03:17:19;;;;;;;;;;;4.80;99.90;;;;;;5021689;28;19921;-79
2022/12/06 03:19:47;;;;;;;;;;;4.80;99.90;;;;;;5020295;28;19971;-79
2022/12/06 03:22:21;;;;;;;;;;;4.80;99.90;;;;;;5015844;28;19929;-82
2022/12/06 03:24:48;;;;;;;;;;;4.90;99.90;;;;;;5036890;28;19971;-79
2022/12/06 03:27:16;;;;;;;;;;;4.90;99.90;;;;;;5016021;28;19923;-79
2022/12/06 03:29:50;;;;;;;;;;;4.90;99.90;;;;;;5011710;28;20427;-79
2022/12/06 03:32:17;;;;;;;;;;;4.90;99.90;;;;;;5037488;28;19921;-83
2022/12/06 03:34:43;;;;;;;;;;;4.90;99.90;;;;;;5026404;28;20004;-82
2022/12/06 03:37:13;;;;;;;;;;;5.00;99.90;;;;;;5037226;28;19929;-79
2022/12/06 03:39:45;;;;;;;;;;;4.80;99.90;;;;;;5039956;28;19928;-79
2022/12/06 03:42:11;;;;;;;;;;;4.80;99.90;;;;;;5031442;28;19946;-80
2022/12/06 03:44:36;;;;;;;;;;;4.80;99.90;;;;;;5022702;28;20667;-79
2022/12/06 03:47:21;;;;;;;;;;;4.80;99.90;;;;;;5023971;28;20376;-79
2022/12/06 03:49:49;;;;;;;;;;;4.80;99.90;;;;;;5021198;28;19974;-80
2022/12/06 03:52:14;;;;;;;;;;;4.90;99.90;;;;;;5022209;28;20386;-79
2022/12/06 03:54:40;;;;;;;;;;;4.70;99.90;;;;;;5028318;28;19921;-81
2022/12/06 03:57:06;;;;;;;;;;;4.80;99.90;;;;;;5022450;28;19964;-79
2022/12/06 03:59:31;;;;;;;;;;;4.70;99.90;;;;;;5007656;28;19956;-79
2022/12/06 04:01:57;;;;;;;;;;;4.70;99.90;;;;;;5031190;28;19921;-79
2022/12/06 04:04:23;;;;;;;;;;;4.70;99.90;;;;;;5022776;28;19929;-79
2022/12/06 04:06:50;;;;;;;;;;;4.60;99.90;;;;;;5019773;28;19921;-79
2022/12/06 04:14:58;;;;;;;;;;;4.50;99.90;;;;;;5013370;28;20020;-79
2022/12/06 04:20:08;;;;;;;;;;;4.60;99.90;;;;;;5022427;28;19921;-79
2022/12/06 04:25:17;;;;;;;;;;;4.60;99.90;;;;;;5031917;28;19924;-80
2022/12/06 04:38:43;;;;;;;;;;;4.60;99.90;;;;;;5027809;28;20019;-79
2022/12/06 04:41:09;;;;;;;;;;;4.60;99.90;;;;;;5005764;28;19932;-79
2022/12/06 04:43:41;;;;;;;;;;;4.50;99.90;;;;;;5010861;28;19941;-85
2022/12/06 04:46:07;;;;;;;;;;;4.70;99.90;;;;;;5021478;28;20348;-83
2022/12/06 04:48:33;;;;;;;;;;;4.50;99.90;;;;;;5018661;28;19932;-79
2022/12/06 04:50:58;;;;;;;;;;;4.50;99.90;;;;;;5032237;28;19924;-79
2022/12/06 04:53:27;;;;;;;;;;;4.50;99.90;;;;;;5017076;28;19921;-80
2022/12/06 04:55:52;;;;;;;;;;;4.50;99.90;;;;;;5021077;28;19924;-79
2022/12/06 04:58:18;;;;;;;;;;;4.40;99.90;;;;;;5005368;28;19921;-79
2022/12/06 05:00:44;;;;;;;;;;;4.50;99.90;;;;;;5009711;28;20682;-79
2022/12/06 05:03:13;;;;;;;;;;;4.30;99.90;;;;;;5021059;28;19925;-80
2022/12/06 05:05:45;;;;;;;;;;;4.30;99.90;;;;;;5027465;28;20302;-79
2022/12/06 05:08:11;;;;;;;;;;;4.30;99.90;;;;;;5015747;28;19976;-80
2022/12/06 05:10:36;;;;;;;;;;;4.20;99.90;;;;;;4997078;28;19925;-81
2022/12/06 05:13:04;;;;;;;;;;;4.20;99.90;;;;;;5027273;28;19921;-79
2022/12/06 05:15:30;;;;;;;;;;;4.20;99.90;;;;;;5017093;28;19930;-79
2022/12/06 05:17:56;;;;;;;;;;;4.20;99.90;;;;;;5036020;28;19926;-79
2022/12/06 05:20:28;;;;;;;;;;;4.10;99.90;;;;;;5006165;28;19921;-79
2022/12/06 05:23:09;;;;;;;;;;;4.10;99.90;;;;;;5023715;28;19921;-81
2022/12/06 05:25:34;;;;;;;;;;;4.00;99.90;;;;;;5039837;28;19921;-81
2022/12/06 05:28:19;;;;;;;;;;;4.10;99.90;;;;;;5022927;28;19921;-79
2022/12/06 05:30:58;;;;;;;;;;;4.10;99.90;;;;;;5025779;28;19989;-83
2022/12/06 05:33:41;;;;;;;;;;;4.00;99.90;;;;;;5021975;28;19978;-82
2022/12/06 05:36:24;;;;;;;;;;;4.00;99.90;;;;;;5007847;28;20384;-79
2022/12/06 05:39:16;;;;;;;;;;;4.00;99.90;;;;;;5009750;28;19929;-79
2022/12/06 05:42:01;;;;;;;;;;;4.10;99.90;;;;;;5023580;28;20456;-84
2022/12/06 05:44:27;;;;;;;;;;;4.00;99.90;;;;;;5019019;28;20372;-79
2022/12/06 05:47:12;;;;;;;;;;;4.10;99.90;;;;;;5006139;28;19921;-79
2022/12/06 05:49:38;;;;;;;;;;;4.10;99.90;;;;;;5020498;28;19926;-79
2022/12/06 05:52:08;;;;;;;;;;;4.10;99.90;;;;;;5026648;28;19929;-79
2022/12/06 05:54:37;;;;;;;;;;;4.10;99.90;;;;;;5035251;28;20361;-79
2022/12/06 05:57:08;;;;;;;;;;;4.00;99.90;;;;;;4997140;28;19968;-81
2022/12/06 06:02:29;;;;;;;;;;;4.00;99.90;;;;;;5032604;28;19928;-80
2022/12/06 06:04:54;;;;;;;;;;;4.00;99.90;;;;;;5023165;28;19925;-79
2022/12/06 06:07:20;;;;;;;;;;;3.90;99.90;;;;;;5024769;28;20014;-79
2022/12/06 06:09:50;;;;;;;;;;;3.90;99.90;;;;;;5032843;28;19931;-81
2022/12/06 06:12:16;;;;;;;;;;;3.90;99.90;;;;;;5015357;28;20439;-79
2022/12/06 06:17:32;;;;;;;;;;;3.90;99.90;;;;;;5020878;28;20051;-79
2022/12/06 06:19:58;;;;;;;;;;;3.90;99.90;;;;;;5002581;28;19925;-80
2022/12/06 06:22:27;;;;;;;;;;;3.90;99.90;;;;;;5002522;28;19925;-78
2022/12/06 06:25:18;;;;;;;;;;;3.80;99.90;;;;;;5020668;28;20498;-79
2022/12/06 06:27:46;;;;;;;;;;;3.90;99.90;;;;;;5013713;28;19933;-79
2022/12/06 06:30:12;;;;;;;;;;;3.90;99.90;;;;;;5017568;28;19921;-79
2022/12/06 06:32:55;;;;;;;;;;;3.80;99.90;;;;;;5021422;28;19976;-80
2022/12/06 06:35:21;;;;;;;;;;;3.80;99.90;;;;;;4999013;28;19928;-84
2022/12/06 06:37:53;;;;;;;;;;;3.80;99.90;;;;;;5006951;28;19925;-82
2022/12/06 06:40:18;;;;;;;;;;;3.80;99.90;;;;;;4984057;28;19921;-83
2022/12/06 06:42:48;;;;;;;;;;;3.70;99.90;;;;;;5004145;28;19935;-80
2022/12/06 06:45:19;;;;;;;;;;;3.70;99.90;;;;;;5001473;28;20388;-79
2022/12/06 06:47:44;;;;;;;;;;;3.70;99.90;;;;;;5017506;28;19963;-82
2022/12/06 06:50:10;;;;;;;;;;;3.60;99.90;;;;;;4997930;28;19987;-80
2022/12/06 06:52:36;;;;;;;;;;;3.50;99.90;;;;;;5023184;28;19921;-80
2022/12/06 06:55:01;;;;;;;;;;;3.50;99.90;;;;;;5032002;28;19921;-80
2022/12/06 06:57:27;;;;;;;;;;;3.50;99.90;;;;;;4988873;28;20016;-80
2022/12/06 06:59:54;;;;;;;;;;;3.40;99.90;;;;;;5012002;28;19965;-80
2022/12/06 07:02:23;;;;;;;;;;;3.40;99.90;;;;;;5022757;28;20379;-85
2022/12/06 07:04:49;;;;;;;;;;;3.30;99.90;;;;;;5034941;28;19921;-80
2022/12/06 07:07:14;;;;;;;;;;;3.30;99.90;;;;;;5014810;28;19944;-80
2022/12/06 07:09:40;;;;;;;;;;;3.30;99.90;;;;;;5034160;28;20281;-79
2022/12/06 07:12:06;;;;;;;;;;;3.30;99.90;;;;;;5013662;28;19921;-81
2022/12/06 07:14:31;;;;;;;;;;;3.30;99.90;;;;;;5000363;28;19932;-79
2022/12/06 07:16:57;;;;;;;;;;;3.30;99.90;;;;;;5003409;28;20383;-80
2022/12/06 07:19:22;;;;;;;;;;;3.20;99.90;;;;;;5009278;28;19925;-81
2022/12/06 07:21:48;;;;;;;;;;;3.10;99.90;;;;;;5025532;28;19927;-80
2022/12/06 07:24:14;;;;;;;;;;;3.00;99.90;;;;;;5018943;28;19936;-79
2022/12/06 07:26:39;;;;;;;;;;;3.00;99.90;;;;;;4998556;28;19925;-80
2022/12/06 07:29:05;;;;;;;;;;;2.90;99.90;;;;;;5023350;28;20226;-82
2022/12/06 07:31:31;;;;;;;;;;;2.80;99.90;;;;;;5023355;28;20018;-80
2022/12/06 07:33:57;;;;;;;;;;;2.70;99.90;;;;;;5018187;28;19975;-79
2022/12/06 07:36:23;;;;;;;;;;;2.70;99.90;;;;;;5035316;28;19936;-87
2022/12/06 07:38:50;;;;;;;;;;;2.60;99.90;;;;;;5016677;28;19975;-80
2022/12/06 07:46:46;;;;;;;;;;;2.40;99.90;;;;;;5024171;28;19928;-84
2022/12/06 07:49:11;;;;;;;;;;;2.40;99.90;;;;;;4984630;28;20035;-84
2022/12/06 07:51:38;;;;;;;;;;;2.40;99.90;;;;;;5013234;28;19925;-79
2022/12/06 07:54:04;;;;;;;;;;;2.40;99.90;;;;;;5022704;28;19921;-80
2022/12/06 07:56:30;;;;;;;;;;;2.40;99.90;;;;;;5015852;28;19929;-81
2022/12/06 07:58:55;;;;;;;;;;;2.40;99.90;;;;;;5011192;28;20350;-80
2022/12/06 08:01:22;;;;;;;;;;;2.40;99.90;;;;;;5013333;28;20038;-84
2022/12/06 08:03:47;;;;;;;;;;;2.40;99.90;;;;;;5015415;28;20277;-82
2022/12/06 08:06:21;;;;;;;;;;;2.40;99.90;;;;;;5012122;28;19929;-82
2022/12/06 08:08:46;;;;;;;;;;;2.40;99.90;;;;;;5010643;28;20414;-79
2022/12/06 08:11:12;;;;;;;;;;;2.40;99.90;;;;;;5023079;28;19964;-79
2022/12/06 08:13:38;;;;;;;;;;;2.40;99.90;;;;;;5014590;28;20344;-79
2022/12/06 08:16:07;;;;;;;;;;;2.40;99.90;;;;;;5013275;28;19921;-80
2022/12/06 08:18:33;;;;;;;;;;;2.30;99.90;;;;;;5039047;28;19921;-81
2022/12/06 08:21:05;;;;;;;;;;;2.30;99.90;;;;;;5018680;28;19975;-80
2022/12/06 08:23:31;;;;;;;;;;;2.30;99.90;;;;;;5015883;28;19921;-79
2022/12/06 08:25:57;;;;;;;;;;;2.30;99.90;;;;;;5008104;28;19925;-80
2022/12/06 08:28:23;;;;;;;;;;;2.30;99.90;;;;;;5020973;28;19975;-79
2022/12/06 08:30:49;;;;;;;;;;;2.30;99.90;;;;;;5020921;28;19921;-80
2022/12/06 08:33:14;;;;;;;;;;;2.40;99.90;;;;;;5018035;28;19921;-79
2022/12/06 08:35:40;;;;;;;;;;;2.50;99.90;;;;;;5020015;28;19929;-83
2022/12/06 08:38:07;;;;;;;;;;;2.50;99.90;;;;;;4990518;28;20425;-80
2022/12/06 08:40:32;;;;;;;;;;;2.60;99.90;;;;;;5034079;28;19936;-79
2022/12/06 08:42:58;;;;;;;;;;;2.70;99.90;;;;;;5010871;28;20402;-81
2022/12/06 08:45:24;;;;;;;;;;;2.80;99.90;;;;;;5019990;28;19925;-79
2022/12/06 08:47:51;;;;;;;;;;;2.90;99.90;;;;;;5033800;28;19936;-84
2022/12/06 08:50:17;;;;;;;;;;;3.00;99.90;;;;;;5025250;28;19979;-79
2022/12/06 08:52:42;;;;;;;;;;;3.00;99.90;;;;;;5036265;28;19936;-79
2022/12/06 08:55:10;;;;;;;;;;;3.10;99.90;;;;;;5032035;28;20276;-84
2022/12/06 08:57:35;;;;;;;;;;;3.10;99.90;;;;;;4988931;28;20332;-85
2022/12/06 09:00:09;;;;;;;;;;;3.30;99.90;;;;;;5018523;28;20384;-79
2022/12/06 09:02:38;;;;;;;;;;;3.30;99.90;;;;;;5021124;28;19925;-85
2022/12/06 09:05:04;;;;;;;;;;;3.40;99.90;;;;;;4997222;28;19928;-80
2022/12/06 09:07:30;;;;;;;;;;;3.60;99.90;;;;;;5021164;28;19925;-79
2022/12/06 09:09:57;;;;;;;;;;;3.80;99.90;;;;;;5021184;28;20415;-79
2022/12/06 09:12:23;;;;;;;;;;;4.10;99.90;;;;;;5023596;28;19984;-79
2022/12/06 09:14:49;;;;;;;;;;;4.40;99.90;;;;;;5025993;28;20003;-81
2022/12/06 09:17:17;;;;;;;;;;;4.70;99.90;;;;;;5015722;28;19971;-80
2022/12/06 09:19:43;;;;;;;;;;;5.00;99.90;;;;;;5034453;28;19960;-79
2022/12/06 09:22:20;;;;;;;;;;;5.30;99.90;;;;;;5018160;28;20364;-79
2022/12/06 09:24:48;;;;;;;;;;;5.40;99.90;;;;;;4997803;28;19926;-80
2022/12/06 09:27:14;;;;;;;;;;;5.50;99.90;;;;;;5023028;28;19929;-85
2022/12/06 09:29:40;;;;;;;;;;;5.50;99.90;;;;;;5022620;28;19929;-79
2022/12/06 09:32:05;;;;;;;;;;;5.50;99.90;;;;;;5022178;28;19984;-79
2022/12/06 09:34:31;;;;;;;;;;;5.40;99.90;;;;;;5007426;28;19930;-80
2022/12/06 09:37:02;;;;;;;;;;;5.30;99.90;;;;;;5032608;28;20062;-79
2022/12/06 09:39:55;;;;;;;;;;;5.20;99.90;;;;;;5036733;28;19978;-79
2022/12/06 09:42:36;;;;;;;;;;;5.40;99.90;;;;;;5012383;28;20015;-82
2022/12/06 09:45:17;;;;;;;;;;;6.00;99.90;;;;;;5019409;28;19922;-79
2022/12/06 09:48:02;;;;;;;;;;;6.40;99.90;;;;;;5000999;28;20323;-79
2022/12/06 09:50:57;;;;;;;;;;;6.40;99.90;;;;;;5017876;28;19936;-83
2022/12/06 09:53:50;;;;;;;;;;;6.40;99.90;;;;;;5018031;28;19932;-81
2022/12/06 09:56:20;;;;;;;;;;;6.30;99.90;;;;;;5014405;28;19921;-79
2022/12/06 09:58:51;;;;;;;;;;;6.10;99.90;;;;;;5026270;28;20391;-79
2022/12/06 10:01:34;;;;;;;;;;;6.00;99.90;;;;;;5026344;28;20424;-82
2022/12/06 10:04:29;;;;;;;;;;;5.90;99.90;;;;;;5028524;28;19921;-80
2022/12/06 10:07:07;;;;;;;;;;;5.80;99.90;;;;;;5034658;28;19967;-79
2022/12/06 10:09:58;;;;;;;;;;;5.80;99.90;;;;;;5008238;28;19971;-79
2022/12/06 10:12:33;;;;;;;;;;;5.70;99.90;;;;;;5005702;28;20015;-84
2022/12/06 10:15:03;;;;;;;;;;;5.70;99.90;;;;;;5019068;28;19972;-79
2022/12/06 10:17:34;;;;;;;;;;;5.60;99.90;;;;;;5026784;28;20366;-79
2022/12/06 10:20:10;;;;;;;;;;;5.60;99.90;;;;;;5024072;28;19929;-79
2022/12/06 10:22:39;;;;;;;;;;;5.60;99.90;;;;;;5017764;28;19944;-79
2022/12/06 10:25:13;;;;;;;;;;;5.60;99.90;;;;;;5049901;28;19925;-80
2022/12/06 10:27:42;;;;;;;;;;;5.60;99.90;;;;;;5025260;28;20438;-79
2022/12/06 10:30:09;;;;;;;;;;;5.60;99.90;;;;;;5022796;28;19925;-79
2022/12/06 10:32:53;;;;;;;;;;;5.60;99.90;;;;;;5029067;28;19973;-83
2022/12/06 10:35:22;;;;;;;;;;;5.60;99.90;;;;;;5012811;28;19921;-79
2022/12/06 10:38:03;;;;;;;;;;;5.60;99.90;;;;;;5019962;28;19947;-78
2022/12/06 10:40:32;;;;;;;;;;;5.60;99.90;;;;;;5010487;28;20278;-78
2022/12/06 10:42:58;;;;;;;;;;;5.70;99.90;;;;;;5033755;28;20361;-79
2022/12/06 10:48:18;;;;;;;;;;;5.70;99.90;;;;;;5009430;28;20115;-81
2022/12/06 10:50:46;;;;;;;;;;;5.70;99.90;;;;;;5021847;28;20051;-84
2022/12/06 10:53:15;;;;;;;;;;;5.70;99.90;;;;;;5022062;28;20285;-81
2022/12/06 10:55:55;;;;;;;;;;;5.80;99.90;;;;;;5000038;28;19929;-79
2022/12/06 10:58:46;;;;;;;;;;;5.80;99.90;;;;;;5009959;28;20011;-79
2022/12/06 11:01:16;;;;;;;;;;;5.90;99.90;;;;;;5041463;28;20289;-81
2022/12/06 11:03:48;;;;;;;;;;;5.90;99.90;;;;;;5027530;28;19967;-79
2022/12/06 11:06:16;;;;;;;;;;;5.90;99.90;;;;;;5016957;28;20019;-84
2022/12/06 11:08:49;;;;;;;;;;;5.90;99.90;;;;;;5018434;28;20004;-79
2022/12/06 11:11:18;;;;;;;;;;;6.00;99.90;;;;;;5026550;28;20379;-79
2022/12/06 11:13:53;;;;;;;;;;;6.00;99.90;;;;;;5019700;28;19921;-79
2022/12/06 11:16:37;;;;;;;;;;;6.10;99.90;;;;;;5037496;28;20269;-82
2022/12/06 11:19:22;;;;;;;;;;;6.20;99.90;;;;;;5022279;28;19929;-85
2022/12/06 11:21:53;;;;;;;;;;;6.20;99.90;;;;;;5026496;28;19921;-79
2022/12/06 11:24:46;;;;;;;;;;;6.30;99.90;;;;;;5022195;28;19921;-78
2022/12/06 11:27:17;;;;;;;;;;;6.40;99.90;;;;;;5017672;28;20004;-79
2022/12/06 11:29:54;;;;;;;;;;;6.50;99.90;;;;;;5022770;28;19988;-80
2022/12/06 11:32:28;;;;;;;;;;;6.50;99.90;;;;;;5025352;28;19928;-79
2022/12/06 11:34:59;;;;;;;;;;;6.50;99.90;;;;;;5027037;28;19932;-80
2022/12/06 11:37:45;;;;;;;;;;;6.50;99.90;;;;;;5024969;28;19967;-79
2022/12/06 11:40:29;;;;;;;;;;;6.60;99.90;;;;;;5029240;28;19932;-79
2022/12/06 11:43:19;;;;;;;;;;;6.60;99.90;;;;;;5020326;28;19924;-79
2022/12/06 11:45:47;;;;;;;;;;;6.60;99.90;;;;;;5013668;28;19924;-80
2022/12/06 11:48:24;;;;;;;;;;;6.60;99.90;;;;;;5018900;28;20617;-79
2022/12/06 11:50:50;;;;;;;;;;;6.70;99.90;;;;;;5000272;28;19921;-79
2022/12/06 11:53:33;;;;;;;;;;;6.70;99.90;;;;;;4999817;28;19928;-79
2022/12/06 11:56:05;;;;;;;;;;;6.70;99.90;;;;;;5011796;28;19928;-80
2022/12/06 11:58:39;;;;;;;;;;;6.70;99.90;;;;;;5019381;28;19928;-79
2022/12/06 12:01:09;;;;;;;;;;;6.70;99.90;;;;;;5018840;28;19921;-80
2022/12/06 12:03:38;;;;;;;;;;;6.70;99.90;;;;;;5003069;28;20435;-79
2022/12/06 12:06:23;;;;;;;;;;;6.70;99.90;;;;;;5041677;28;19921;-80
2022/12/06 12:08:54;;;;;;;;;;;6.70;99.90;;;;;;5014900;28;19929;-80
2022/12/06 12:11:21;;;;;;;;;;;6.70;99.90;;;;;;5019296;28;20015;-81
2022/12/06 12:13:53;;;;;;;;;;;6.70;99.90;;;;;;5025358;28;19932;-79
2022/12/06 12:16:23;;;;;;;;;;;6.70;99.90;;;;;;5013064;28;19925;-83
2022/12/06 12:18:49;;;;;;;;;;;6.70;99.90;;;;;;5031929;28;20016;-79
2022/12/06 12:21:14;;;;;;;;;;;6.70;99.90;;;;;;5010008;28;20284;-80
2022/12/06 12:23:45;;;;;;;;;;;6.70;99.90;;;;;;5038602;28;19932;-79
2022/12/06 12:26:19;;;;;;;;;;;6.70;99.90;;;;;;5023018;28;19975;-81
2022/12/06 12:29:08;;;;;;;;;;;6.70;99.90;;;;;;5010928;28;19975;-82
2022/12/06 12:31:52;;;;;;;;;;;6.70;99.90;;;;;;5012522;28;19921;-81
2022/12/06 12:34:19;;;;;;;;;;;6.70;99.90;;;;;;5012322;28;19928;-79
2022/12/06 12:36:49;;;;;;;;;;;6.70;99.90;;;;;;5023717;28;19921;-79
2022/12/06 12:39:31;;;;;;;;;;;6.80;99.90;;;;;;5004442;28;19929;-79
2022/12/06 12:41:57;;;;;;;;;;;6.70;99.90;;;;;;5008413;28;19928;-80
2022/12/06 12:44:25;;;;;;;;;;;6.70;99.90;;;;;;5014683;28;19921;-80
2022/12/06 12:46:53;;;;;;;;;;;6.70;99.90;;;;;;5022528;28;19921;-79
2022/12/06 12:49:25;;;;;;;;;;;6.80;99.90;;;;;;5035211;28;19925;-82
2022/12/06 12:51:51;;;;;;;;;;;6.70;99.90;;;;;;5008582;28;20442;-80
2022/12/06 12:54:18;;;;;;;;;;;6.70;99.90;;;;;;5011726;28;19933;-81
2022/12/06 12:56:44;;;;;;;;;;;6.70;99.90;;;;;;5007741;28;19936;-80
2022/12/06 12:59:14;;;;;;;;;;;6.70;99.90;;;;;;5010804;28;19925;-80
2022/12/06 13:01:44;;;;;;;;;;;6.60;99.90;;;;;;5018713;28;19928;-79
2022/12/06 13:04:09;;;;;;;;;;;6.60;99.90;;;;;;5039744;28;19928;-81
2022/12/06 13:06:43;;;;;;;;;;;6.60;99.90;;;;;;5009502;28;19972;-80
2022/12/06 13:09:14;;;;;;;;;;;6.60;99.90;;;;;;5017349;28;21787;-84
2022/12/06 13:11:42;;;;;;;;;;;6.60;99.90;;;;;;5012348;28;19972;-80
2022/12/06 13:14:15;;;;;;;;;;;6.50;99.90;;;;;;5017909;28;19967;-80
2022/12/06 13:16:41;;;;;;;;;;;6.50;99.90;;;;;;4996011;28;20008;-80
2022/12/06 13:19:12;;;;;;;;;;;6.50;99.90;;;;;;5019889;28;19921;-80
2022/12/06 13:21:39;;;;;;;;;;;6.50;99.90;;;;;;5013999;28;20016;-84
2022/12/06 13:24:08;;;;;;;;;;;6.50;99.90;;;;;;5036471;28;19920;-80
2022/12/06 13:26:37;;;;;;;;;;;6.50;99.90;;;;;;5014094;28;19925;-79
2022/12/06 13:29:21;;;;;;;;;;;6.50;99.90;;;;;;5043401;28;19925;-81
2022/12/06 13:31:51;;;;;;;;;;;6.60;99.90;;;;;;5041784;28;19975;-80
2022/12/06 13:34:16;;;;;;;;;;;6.60;99.90;;;;;;5038242;28;19928;-80
2022/12/06 13:36:42;;;;;;;;;;;6.60;99.90;;;;;;5014054;28;19921;-80
2022/12/06 13:39:26;;;;;;;;;;;6.60;99.90;;;;;;5040532;28;19936;-85
2022/12/06 13:44:42;;;;;;;;;;;6.60;99.90;;;;;;5024442;28;20387;-80
2022/12/06 13:47:25;;;;;;;;;;;6.60;99.90;;;;;;5024483;28;19925;-79
2022/12/06 13:49:52;;;;;;;;;;;6.60;99.90;;;;;;5040460;28;20425;-80
2022/12/06 13:52:36;;;;;;;;;;;6.60;99.90;;;;;;5045209;28;20431;-80
2022/12/06 13:55:20;;;;;;;;;;;6.60;99.90;;;;;;5038917;28;19928;-81
2022/12/06 13:57:46;;;;;;;;;;;6.60;99.90;;;;;;5022482;28;19921;-80
2022/12/06 14:00:27;;;;;;;;;;;6.60;99.90;;;;;;5035895;28;19974;-80
2022/12/06 14:03:13;;;;;;;;;;;6.60;99.90;;;;;;5020954;28;19963;-80
2022/12/06 14:05:59;;;;;;;;;;;6.60;99.90;;;;;;5034882;28;19965;-80
2022/12/06 14:08:35;;;;;;;;;;;6.60;99.90;;;;;;5026197;28;20146;-80
2022/12/06 14:11:12;;;;;;;;;;;6.60;99.90;;;;;;5042172;28;19928;-81
2022/12/06 14:13:41;;;;;;;;;;;6.60;99.90;;;;;;5023837;28;19960;-85
2022/12/06 14:16:08;;;;;;;;;;;6.70;99.90;;;;;;5007257;28;19927;-79
2022/12/06 14:18:40;;;;;;;;;;;6.60;99.90;;;;;;5021258;28;19932;-80
2022/12/06 14:21:16;;;;;;;;;;;6.60;99.90;;;;;;5039067;28;19925;-82
2022/12/06 14:23:45;;;;;;;;;;;6.60;99.90;;;;;;5020422;28;19924;-79
2022/12/06 14:26:12;;;;;;;;;;;6.60;99.90;;;;;;5030966;28;19931;-80
2022/12/06 14:28:37;;;;;;;;;;;6.60;99.90;;;;;;5027313;28;19921;-80
2022/12/06 14:31:15;;;;;;;;;;;6.50;99.90;;;;;;5007389;28;20300;-82
2022/12/06 14:33:40;;;;;;;;;;;6.60;99.90;;;;;;5013034;28;19944;-80
2022/12/06 14:36:13;;;;;;;;;;;6.60;99.90;;;;;;4995654;28;19932;-82
2022/12/06 14:38:42;;;;;;;;;;;6.60;99.90;;;;;;5013870;28;20392;-80
2022/12/06 14:44:08;;;;;;;;;;;6.60;99.90;;;;;;5010843;28;19925;-83
2022/12/06 14:46:34;;;;;;;;;;;6.50;99.90;;;;;;5021852;28;20009;-79
2022/12/06 14:51:44;;;;;;;;;;;6.50;99.90;;;;;;5014497;28;20027;-80
2022/12/06 14:54:16;;;;;;;;;;;6.50;99.90;;;;;;5026230;28;20425;-80
2022/12/06 14:56:43;;;;;;;;;;;6.50;99.90;;;;;;4998537;28;19944;-80
2022/12/06 14:59:09;;;;;;;;;;;6.50;99.90;;;;;;5024043;28;19960;-80
2022/12/06 15:01:45;;;;;;;;;;;6.50;99.90;;;;;;5023022;28;20016;-80
2022/12/06 15:04:22;;;;;;;;;;;6.50;99.90;;;;;;5013398;28;19925;-80
2022/12/06 15:06:52;;;;;;;;;;;6.50;99.90;;;;;;5010542;28;20008;-80
2022/12/06 15:09:20;;;;;;;;;;;6.40;99.90;;;;;;5021915;28;19974;-80
2022/12/06 15:14:33;;;;;;;;;;;6.40;99.90;;;;;;5021650;28;19932;-80
2022/12/06 15:16:59;;;;;;;;;;;6.40;99.90;;;;;;5034233;28;19921;-82
2022/12/06 15:19:25;;;;;;;;;;;6.40;99.90;;;;;;5030251;28;20055;-80
2022/12/06 15:21:54;;;;;;;;;;;6.40;99.90;;;;;;5022200;28;19930;-80
2022/12/06 15:24:21;;;;;;;;;;;6.40;99.90;;;;;;5019835;28;19926;-80
2022/12/06 15:26:47;;;;;;;;;;;6.40;99.90;;;;;;5021960;28;19929;-83
2022/12/06 15:29:12;;;;;;;;;;;6.40;99.90;;;;;;5042441;28;20289;-79
2022/12/06 15:31:40;;;;;;;;;;;6.40;99.90;;;;;;5027616;28;19925;-80
2022/12/06 15:34:24;;;;;;;;;;;6.40;99.90;;;;;;5008877;28;20035;-81
2022/12/06 15:36:50;;;;;;;;;;;6.40;99.90;;;;;;5014197;28;20383;-80